Terminal Aerodrome Forecast
Issued by NWS Sterling, VA

Home | Current Version | Previous Version | Text Only | Print | Product List | Glossary On
Versions: 1 2 3 4 5 6 7 8 9 10 11 12 13 14 15 16 17 18 19 20 21
000
FTUS41 KLWX 070225 AAC
TAFCHO
TAF AMD
KCHO 070225Z 0702/0724 35010KT P6SM BKN100
     FM070500 07003KT P6SM BKN050
     FM070800 13003KT 4SM BR BKN035
     FM071000 VRB03KT 2SM BR BKN025
     FM071300 08003KT 6SM BR BKN050
     FM071900 13005KT P6SM SCT050
     FM072100 13006KT P6SM BKN200=

USA.gov is the U.S. government's official web portal to all federal, state and local government web resources and services.